createdAt,value
2022-12-28T00:01:16.270Z,99129.22
2022-12-28T00:03:42.841Z,99121.41
2022-12-28T00:06:09.856Z,99114.13
2022-12-28T00:08:36.383Z,99116.56
2022-12-28T00:11:12.186Z,99100.47
2022-12-28T00:13:45.424Z,99103.66
2022-12-28T00:16:11.935Z,99109.59
2022-12-28T00:18:38.555Z,99103.09
2022-12-28T00:21:05.518Z,99097.59
2022-12-28T00:23:32.090Z,99094.81
2022-12-28T00:26:08.530Z,99074.66
2022-12-28T00:28:35.221Z,99078.41
2022-12-28T00:31:02.580Z,99088.22
2022-12-28T00:33:29.180Z,99085.41
2022-12-28T00:35:56.413Z,99084.94
2022-12-28T00:38:23.105Z,99082.22
2022-12-28T00:40:49.607Z,99082.06
2022-12-28T00:43:16.225Z,99086.06
2022-12-28T00:45:48.809Z,99077.19
2022-12-28T00:48:15.531Z,99084.19
2022-12-28T00:50:42.733Z,99078.97
2022-12-28T00:53:09.553Z,99075.75
2022-12-28T00:55:36.118Z,99073.16
2022-12-28T00:58:05.002Z,99064.47
2022-12-28T01:00:31.640Z,99061.84
2022-12-28T01:02:58.327Z,99062.94
2022-12-28T01:05:24.893Z,99064.81
2022-12-28T01:07:51.409Z,99063.59
2022-12-28T01:10:18.366Z,99063.84
2022-12-28T01:12:45.079Z,99045.03
2022-12-28T01:15:11.984Z,99042.50
2022-12-28T01:17:38.746Z,99038.78
2022-12-28T01:20:05.739Z,99033.06
2022-12-28T01:22:32.302Z,99031.94
2022-12-28T01:24:59.858Z,99028.09
2022-12-28T01:27:26.452Z,99017.63
2022-12-28T01:29:54.039Z,99023.91
2022-12-28T01:32:20.556Z,99016.50
2022-12-28T01:34:47.139Z,99015.41
2022-12-28T01:37:13.683Z,99019.69
2022-12-28T01:39:40.227Z,99021.41
2022-12-28T01:42:09.849Z,99019.34
2022-12-28T01:44:41.189Z,99007.28
2022-12-28T01:47:09.684Z,99007.16
2022-12-28T01:49:36.475Z,98999.44
2022-12-28T01:52:07.013Z,99001.13
2022-12-28T01:54:38.127Z,99002.28
2022-12-28T01:57:04.658Z,98998.13
2022-12-28T01:59:31.792Z,98993.09
2022-12-28T02:01:58.545Z,98987.56
2022-12-28T02:04:25.846Z,98983.91
2022-12-28T02:06:52.514Z,98982.44
2022-12-28T02:09:19.896Z,98970.25
2022-12-28T02:11:46.501Z,98959.91
2022-12-28T02:14:13.195Z,98957.56
2022-12-28T02:16:39.744Z,98959.59
2022-12-28T02:19:07.804Z,98966.50
2022-12-28T02:21:49.555Z,98967.47
2022-12-28T02:24:34.891Z,98965.75
2022-12-28T02:27:07.243Z,98953.41
2022-12-28T02:29:36.603Z,98947.34
2022-12-28T02:32:09.501Z,98952.38
2022-12-28T02:34:40.897Z,98942.19
2022-12-28T02:37:27.687Z,98939.69
2022-12-28T02:40:12.045Z,98936.72
2022-12-28T02:42:38.525Z,98921.13
2022-12-28T02:45:23.767Z,98926.16
2022-12-28T02:48:08.938Z,98923.00
2022-12-28T02:50:38.429Z,98918.16
2022-12-28T02:53:18.293Z,98921.09
2022-12-28T02:56:10.198Z,98903.59
2022-12-28T02:58:40.016Z,98898.34
2022-12-28T03:01:14.480Z,98897.63
2022-12-28T03:03:47.221Z,98889.63
2022-12-28T03:06:40.582Z,98886.69
2022-12-28T03:09:27.938Z,98871.28
2022-12-28T03:12:05.252Z,98874.41
2022-12-28T03:14:40.741Z,98881.44
2022-12-28T03:17:26.231Z,98877.22
2022-12-28T03:20:13.712Z,98880.91
2022-12-28T03:23:00.068Z,98878.28
2022-12-28T03:25:46.145Z,98879.00
2022-12-28T03:28:33.268Z,98880.47
2022-12-28T03:31:07.373Z,98880.56
2022-12-28T03:33:42.434Z,98877.47
2022-12-28T03:36:13.167Z,98870.16
2022-12-28T03:38:46.125Z,98871.72
2022-12-28T03:41:13.972Z,98876.09
2022-12-28T03:43:45.869Z,98873.69
2022-12-28T03:46:18.138Z,98862.56
2022-12-28T03:48:44.713Z,98856.56
2022-12-28T03:51:12.796Z,98862.75
2022-12-28T03:53:41.263Z,98850.09
2022-12-28T03:56:14.661Z,98845.72
2022-12-28T03:58:43.432Z,98846.97
2022-12-28T04:01:10.174Z,98843.00
2022-12-28T04:03:38.966Z,98831.53
2022-12-28T04:06:05.906Z,98828.09
2022-12-28T04:08:32.880Z,98828.91
2022-12-28T04:11:00.117Z,98828.19
2022-12-28T04:13:30.853Z,98828.69
2022-12-28T04:16:07.881Z,98819.53
2022-12-28T04:18:35.841Z,98821.78
2022-12-28T04:21:02.392Z,98818.97
2022-12-28T04:23:29.059Z,98824.00
2022-12-28T04:26:12.324Z,98812.22
2022-12-28T04:28:40.184Z,98815.53
2022-12-28T04:31:20.943Z,98818.03
2022-12-28T04:33:58.182Z,98800.88
2022-12-28T04:36:24.977Z,98801.50
2022-12-28T04:38:51.575Z,98796.69
2022-12-28T04:41:18.121Z,98797.22
2022-12-28T04:43:44.655Z,98799.81
2022-12-28T04:46:12.360Z,98793.50
2022-12-28T04:48:38.902Z,98798.66
2022-12-28T04:51:06.316Z,98789.09
2022-12-28T04:53:35.822Z,98791.16
2022-12-28T04:56:05.682Z,98796.63
2022-12-28T04:58:32.229Z,98795.09
2022-12-28T05:01:03.007Z,98801.56
2022-12-28T05:03:29.574Z,98801.56
2022-12-28T05:05:59.627Z,98801.72
2022-12-28T05:08:26.200Z,98789.66
2022-12-28T05:10:52.694Z,98790.13
2022-12-28T05:13:19.260Z,98783.78
2022-12-28T05:15:45.866Z,98786.06
2022-12-28T05:18:12.416Z,98785.34
2022-12-28T05:20:38.983Z,98788.91
2022-12-28T05:23:05.486Z,98784.00
2022-12-28T05:25:32.033Z,98782.84
2022-12-28T05:27:58.669Z,98781.16
2022-12-28T05:30:25.168Z,98780.72
2022-12-28T05:32:51.659Z,98783.66
2022-12-28T05:35:18.135Z,98784.28
2022-12-28T05:37:44.656Z,98778.44
2022-12-28T05:40:11.182Z,98781.31
2022-12-28T05:42:37.670Z,98783.69
2022-12-28T05:45:04.337Z,98769.50
2022-12-28T05:47:30.825Z,98775.81
2022-12-28T05:49:57.374Z,98783.41
2022-12-28T05:52:23.876Z,98787.72
2022-12-28T05:54:50.399Z,98783.88
2022-12-28T05:57:16.988Z,98782.47
2022-12-28T05:59:43.614Z,98783.16
2022-12-28T06:02:11.119Z,98776.78
2022-12-28T06:04:38.836Z,98770.84
2022-12-28T06:07:05.357Z,98780.09
2022-12-28T06:09:33.198Z,98773.97
2022-12-28T06:11:59.763Z,98773.72
2022-12-28T06:14:26.349Z,98770.28
2022-12-28T06:16:53.055Z,98769.34
2022-12-28T06:19:19.576Z,98764.56
2022-12-28T06:21:46.083Z,98764.91
2022-12-28T06:24:13.940Z,98774.00
2022-12-28T06:26:41.040Z,98764.69
2022-12-28T06:29:07.595Z,98762.88
2022-12-28T06:31:35.604Z,98767.69
2022-12-28T06:34:02.853Z,98766.81
2022-12-28T06:36:30.729Z,98763.75
2022-12-28T06:38:57.652Z,98761.13
2022-12-28T06:41:24.443Z,98765.53
2022-12-28T06:43:50.991Z,98757.19
2022-12-28T06:46:18.477Z,98750.13
2022-12-28T06:48:45.077Z,98749.97
2022-12-28T06:51:12.702Z,98748.69
2022-12-28T06:53:39.221Z,98753.00
2022-12-28T06:56:06.675Z,98749.41
2022-12-28T06:58:33.154Z,98742.94
2022-12-28T07:01:13.619Z,98740.56
2022-12-28T07:03:40.577Z,98735.88
2022-12-28T07:06:07.409Z,98739.03
2022-12-28T07:08:34.038Z,98740.56
2022-12-28T07:11:03.985Z,98737.44
2022-12-28T07:13:30.512Z,98731.50
2022-12-28T07:15:57.012Z,98728.94
2022-12-28T07:18:23.523Z,98729.56
2022-12-28T07:20:50.006Z,98725.13
2022-12-28T07:23:16.591Z,98723.13
2022-12-28T07:25:43.442Z,98719.16
2022-12-28T07:28:09.978Z,98715.47
2022-12-28T07:30:36.633Z,98717.63
2022-12-28T07:33:04.319Z,98722.25
2022-12-28T07:35:30.793Z,98718.66
2022-12-28T07:37:57.309Z,98710.88
2022-12-28T07:40:23.830Z,98709.59
2022-12-28T07:42:50.364Z,98711.06
2022-12-28T07:45:17.157Z,98712.00
2022-12-28T07:47:43.651Z,98711.59
2022-12-28T07:50:10.333Z,98717.78
2022-12-28T07:52:37.470Z,98716.34
2022-12-28T07:55:04.565Z,98711.78
2022-12-28T07:57:31.076Z,98714.19
2022-12-28T07:59:57.621Z,98715.28
2022-12-28T08:02:24.282Z,98706.56
2022-12-28T08:04:52.329Z,98703.81
2022-12-28T08:07:18.962Z,98709.50
2022-12-28T08:09:45.450Z,98693.63
2022-12-28T08:12:12.002Z,98702.28
2022-12-28T08:14:38.559Z,98701.19
2022-12-28T08:17:05.153Z,98698.16
2022-12-28T08:19:31.682Z,98696.13
2022-12-28T08:21:58.229Z,98698.16
2022-12-28T08:24:24.746Z,98692.59
2022-12-28T08:26:51.430Z,98685.16
2022-12-28T08:29:19.297Z,98689.81
2022-12-28T08:31:46.180Z,98685.47
2022-12-28T08:34:13.931Z,98678.31
2022-12-28T08:36:40.754Z,98679.97
2022-12-28T08:39:07.294Z,98682.38
2022-12-28T08:41:33.797Z,98676.34
2022-12-28T08:44:00.318Z,98672.63
2022-12-28T08:46:27.904Z,98673.06
2022-12-28T08:48:54.992Z,98672.97
2022-12-28T08:51:22.550Z,98678.97
2022-12-28T08:53:49.133Z,98668.38
2022-12-28T08:56:19.678Z,98668.84
2022-12-28T08:58:46.476Z,98665.63
2022-12-28T09:01:17.247Z,98664.28
2022-12-28T09:03:47.685Z,98672.44
2022-12-28T09:06:15.141Z,98674.16
2022-12-28T09:08:42.556Z,98673.81
2022-12-28T09:11:12.674Z,98675.06
2022-12-28T09:13:41.035Z,98672.97
2022-12-28T09:16:11.411Z,98666.78
2022-12-28T09:18:38.416Z,98674.34
2022-12-28T09:21:09.023Z,98667.72
2022-12-28T09:23:35.788Z,98665.94
2022-12-28T09:26:09.057Z,98667.72
2022-12-28T09:28:37.569Z,98664.22
2022-12-28T09:31:07.782Z,98651.34
2022-12-28T09:34:34.225Z,98656.06
2022-12-28T09:36:43.149Z,98658.66
2022-12-28T09:39:12.459Z,98653.94
2022-12-28T09:41:38.995Z,98658.66
2022-12-28T09:44:10.240Z,98651.47
2022-12-28T09:46:36.983Z,98644.78
2022-12-28T09:49:03.894Z,98648.53
2022-12-28T09:51:36.227Z,98645.59
2022-12-28T09:54:06.490Z,98644.19
2022-12-28T09:56:33.194Z,98641.72
2022-12-28T09:58:59.844Z,98638.13
2022-12-28T10:01:26.436Z,98647.03
2022-12-28T10:03:53.052Z,98647.16
2022-12-28T10:06:23.624Z,98640.50
2022-12-28T10:08:51.523Z,98645.38
2022-12-28T10:11:19.388Z,98640.94
2022-12-28T10:13:54.568Z,98644.81
2022-12-28T10:16:22.873Z,98645.91
2022-12-28T10:18:49.609Z,98632.53
2022-12-28T10:21:32.016Z,98621.53
2022-12-28T10:26:50.513Z,98617.97
2022-12-28T10:29:18.447Z,98604.72
2022-12-28T10:31:45.045Z,98605.09
2022-12-28T10:34:15.871Z,98605.00
2022-12-28T10:36:44.354Z,98591.66
2022-12-28T10:39:18.167Z,98593.31
2022-12-28T10:41:45.719Z,98596.44
2022-12-28T10:44:40.020Z,98597.97
2022-12-28T10:47:15.872Z,98595.63
2022-12-28T10:50:10.107Z,98585.91
2022-12-28T10:52:37.895Z,98587.69
2022-12-28T10:55:15.567Z,98581.75
2022-12-28T10:58:10.551Z,98581.63
2022-12-28T11:00:30.067Z,98581.88
2022-12-28T11:02:59.829Z,98573.69
2022-12-28T11:05:26.880Z,98570.63
2022-12-28T11:08:05.769Z,98559.75
2022-12-28T11:10:33.059Z,98560.69
2022-12-28T11:13:00.287Z,98552.28
2022-12-28T11:15:33.245Z,98548.34
2022-12-28T11:18:11.969Z,98540.53
2022-12-28T11:20:38.874Z,98541.81
2022-12-28T11:23:05.926Z,98536.75
2022-12-28T11:25:34.656Z,98524.72
2022-12-28T11:28:12.894Z,98526.50
2022-12-28T11:30:39.425Z,98511.47
2022-12-28T11:33:10.045Z,98513.31
2022-12-28T11:35:38.019Z,98511.72
2022-12-28T11:38:05.626Z,98514.41
2022-12-28T11:40:45.607Z,98508.44
2022-12-28T11:43:30.508Z,98503.53
2022-12-28T11:45:57.666Z,98498.16
2022-12-28T11:48:42.542Z,98496.28
2022-12-28T11:51:22.408Z,98497.75
2022-12-28T11:53:50.256Z,98488.44
2022-12-28T11:56:20.800Z,98488.44
2022-12-28T11:58:49.165Z,98491.69
2022-12-28T12:01:28.484Z,98482.38
2022-12-28T12:03:58.273Z,98478.06
2022-12-28T12:07:01.436Z,98475.03
2022-12-28T12:09:32.794Z,98472.19
2022-12-28T12:11:59.464Z,98458.78
2022-12-28T12:14:32.359Z,98460.91
2022-12-28T12:17:21.000Z,98454.09
2022-12-28T12:19:48.553Z,98460.09
2022-12-28T12:22:15.079Z,98455.31
2022-12-28T12:24:43.091Z,98448.34
2022-12-28T12:27:14.943Z,98451.00
2022-12-28T12:29:44.459Z,98446.44
2022-12-28T12:32:29.735Z,98447.19
2022-12-28T12:34:57.596Z,98427.66
2022-12-28T12:37:47.656Z,98429.81
2022-12-28T12:40:21.602Z,98430.19
2022-12-28T12:42:57.419Z,98430.09
2022-12-28T12:45:36.390Z,98427.75
2022-12-28T12:48:16.856Z,98416.41
2022-12-28T12:50:55.288Z,98410.78
2022-12-28T12:53:26.094Z,98407.31
2022-12-28T12:56:01.902Z,98399.69
2022-12-28T12:58:40.874Z,98401.97
2022-12-28T13:01:16.965Z,98409.06
2022-12-28T13:03:44.935Z,98401.84
2022-12-28T13:06:15.164Z,98397.69
2022-12-28T13:09:05.803Z,98402.03
2022-12-28T13:11:33.483Z,98385.88
2022-12-28T13:14:01.261Z,98387.16
2022-12-28T13:16:29.164Z,98378.84
2022-12-28T13:18:59.976Z,98380.53
2022-12-28T13:21:27.889Z,98377.66
2022-12-28T13:23:54.480Z,98375.56
2022-12-28T13:26:28.493Z,98380.47
2022-12-28T13:28:59.580Z,98366.50
2022-12-28T13:31:49.924Z,98373.34
2022-12-28T13:34:18.092Z,98371.63
2022-12-28T13:36:51.912Z,98372.06
2022-12-28T13:39:18.760Z,98368.28
2022-12-28T13:41:47.663Z,98364.81
2022-12-28T13:44:44.136Z,98356.53
2022-12-28T13:47:15.729Z,98355.47
2022-12-28T13:49:44.255Z,98348.28
2022-12-28T13:52:15.993Z,98351.91
2022-12-28T13:54:46.610Z,98350.84
2022-12-28T13:57:45.317Z,98354.06
2022-12-28T14:00:00.784Z,98357.88
2022-12-28T14:02:28.436Z,98361.66
2022-12-28T14:04:55.234Z,98361.34
2022-12-28T14:07:23.030Z,98351.53
2022-12-28T14:09:49.589Z,98353.66
2022-12-28T14:12:16.123Z,98355.38
2022-12-28T14:14:42.867Z,98344.38
2022-12-28T14:17:09.454Z,98342.28
2022-12-28T14:19:36.014Z,98341.13
2022-12-28T14:22:02.674Z,98340.28
2022-12-28T14:24:29.190Z,98340.00
2022-12-28T14:26:58.036Z,98342.47
2022-12-28T14:29:27.737Z,98329.34
2022-12-28T14:31:57.797Z,98332.53
2022-12-28T14:34:26.342Z,98324.22
2022-12-28T14:36:53.829Z,98317.00
2022-12-28T14:39:28.163Z,98317.19
2022-12-28T14:41:54.992Z,98307.63
2022-12-28T14:44:28.101Z,98306.47
2022-12-28T14:46:55.787Z,98303.91
2022-12-28T14:49:28.391Z,98303.09
2022-12-28T14:51:55.560Z,98303.22
2022-12-28T14:54:22.809Z,98301.66
2022-12-28T14:56:55.958Z,98302.66
2022-12-28T14:59:24.258Z,98309.28
2022-12-28T15:01:50.947Z,98295.03
2022-12-28T15:04:26.578Z,98294.88
2022-12-28T15:06:53.983Z,98290.25
2022-12-28T15:09:20.972Z,98296.44
2022-12-28T15:11:47.461Z,98289.00
2022-12-28T15:14:14.092Z,98291.78
2022-12-28T15:16:40.762Z,98285.88
2022-12-28T15:19:07.340Z,98293.16
2022-12-28T15:21:33.933Z,98287.69
2022-12-28T15:24:00.425Z,98290.94
2022-12-28T15:26:28.148Z,98287.47
2022-12-28T15:28:54.699Z,98289.09
2022-12-28T15:31:21.518Z,98279.69
2022-12-28T15:33:48.087Z,98284.81
2022-12-28T15:36:18.399Z,98279.47
2022-12-28T15:38:48.421Z,98289.94
2022-12-28T15:41:34.271Z,98283.50
2022-12-28T15:44:00.830Z,98276.44
2022-12-28T15:46:27.377Z,98278.97
2022-12-28T15:48:53.915Z,98283.19
2022-12-28T15:51:20.468Z,98271.97
2022-12-28T15:53:46.997Z,98276.69
2022-12-28T15:56:18.784Z,98266.84
2022-12-28T15:58:45.320Z,98270.28
2022-12-28T16:01:11.890Z,98273.94
2022-12-28T16:03:38.616Z,98276.03
2022-12-28T16:06:05.854Z,98278.50
2022-12-28T16:08:32.430Z,98278.19
2022-12-28T16:11:11.574Z,98286.81
2022-12-28T16:13:38.068Z,98276.25
2022-12-28T16:16:05.497Z,98282.91
2022-12-28T16:18:32.016Z,98263.41
2022-12-28T16:20:59.726Z,98254.75
2022-12-28T16:23:26.286Z,98252.28
2022-12-28T16:25:52.799Z,98245.19
2022-12-28T16:28:19.346Z,98248.56
2022-12-28T16:30:49.459Z,98242.41
2022-12-28T16:33:15.985Z,98248.97
2022-12-28T16:35:42.497Z,98241.44
2022-12-28T16:38:09.031Z,98248.69
2022-12-28T16:40:35.603Z,98237.50
2022-12-28T16:43:04.777Z,98227.47
2022-12-28T16:45:34.847Z,98229.28
2022-12-28T16:48:01.895Z,98230.34
2022-12-28T16:50:28.598Z,98226.06
2022-12-28T16:52:55.128Z,98217.84
2022-12-28T16:55:21.681Z,98213.56
2022-12-28T16:57:48.211Z,98220.78
2022-12-28T17:00:14.781Z,98217.34
2022-12-28T17:02:41.467Z,98216.75
2022-12-28T17:05:08.350Z,98214.81
2022-12-28T17:07:34.924Z,98218.66
2022-12-28T17:10:01.424Z,98227.47
2022-12-28T17:12:27.967Z,98218.34
2022-12-28T17:14:54.647Z,98216.53
2022-12-28T17:17:21.183Z,98215.84
2022-12-28T17:19:47.733Z,98216.28
2022-12-28T17:22:14.267Z,98216.59
2022-12-28T17:24:40.908Z,98211.97
2022-12-28T17:27:09.783Z,98210.06
2022-12-28T17:29:38.385Z,98207.44
2022-12-28T17:32:05.489Z,98213.69
2022-12-28T17:34:32.087Z,98196.38
2022-12-28T17:36:59.062Z,98202.22
2022-12-28T17:39:26.048Z,98197.66
2022-12-28T17:41:52.523Z,98200.72
2022-12-28T17:44:19.042Z,98195.97
2022-12-28T17:46:45.515Z,98192.09
2022-12-28T17:49:12.478Z,98191.53
2022-12-28T17:51:41.909Z,98192.81
2022-12-28T17:54:10.468Z,98183.09
2022-12-28T17:56:37.119Z,98180.31
2022-12-28T17:59:03.696Z,98185.84
2022-12-28T18:01:30.295Z,98180.75
2022-12-28T18:03:57.031Z,98177.00
2022-12-28T18:06:23.797Z,98174.16
2022-12-28T18:08:50.344Z,98162.53
2022-12-28T18:11:16.870Z,98161.41
2022-12-28T18:13:43.676Z,98151.19
2022-12-28T18:16:10.978Z,98145.13
2022-12-28T18:18:37.487Z,98145.09
2022-12-28T18:21:06.169Z,98148.84
2022-12-28T18:23:32.718Z,98142.53
2022-12-28T18:26:03.360Z,98135.22
2022-12-28T18:28:30.077Z,98138.00
2022-12-28T18:31:01.495Z,98129.28
2022-12-28T18:33:28.743Z,98124.41
2022-12-28T18:35:55.248Z,98126.03
2022-12-28T18:38:21.857Z,98120.84
2022-12-28T18:40:51.987Z,98123.50
2022-12-28T18:43:18.498Z,98122.81
2022-12-28T18:45:51.073Z,98122.81
2022-12-28T18:48:17.595Z,98112.38
2022-12-28T18:50:57.270Z,98109.66
2022-12-28T18:53:24.072Z,98108.13
2022-12-28T18:56:04.470Z,98106.59
2022-12-28T18:58:32.361Z,98109.94
2022-12-28T19:01:40.042Z,98103.94
2022-12-28T19:04:04.097Z,98106.53
2022-12-28T19:06:30.835Z,98102.66
2022-12-28T19:09:00.399Z,98100.75
2022-12-28T19:11:27.146Z,98100.84
2022-12-28T19:13:53.669Z,98100.94
2022-12-28T19:16:24.579Z,98098.75
2022-12-28T19:18:57.084Z,98105.81
2022-12-28T19:21:23.517Z,98092.56
2022-12-28T19:23:50.723Z,98085.94
2022-12-28T19:26:17.276Z,98087.38
2022-12-28T19:28:43.829Z,98080.09
2022-12-28T19:31:10.406Z,98076.47
2022-12-28T19:33:36.978Z,98066.91
2022-12-28T19:36:03.523Z,98058.22
2022-12-28T19:38:30.123Z,98068.84
2022-12-28T19:40:56.626Z,98059.03
2022-12-28T19:43:23.223Z,98051.31
2022-12-28T19:45:49.738Z,98052.97
2022-12-28T19:48:16.361Z,98043.34
2022-12-28T19:50:42.907Z,98045.06
2022-12-28T19:53:09.422Z,98052.66
2022-12-28T19:55:36.032Z,98045.72
2022-12-28T19:58:02.562Z,98053.63
2022-12-28T20:00:29.053Z,98048.78
2022-12-28T20:02:55.700Z,98048.63
2022-12-28T20:05:22.312Z,98047.06
2022-12-28T20:07:49.064Z,98037.22
2022-12-28T20:10:15.619Z,98036.78
2022-12-28T20:12:42.168Z,98044.00
2022-12-28T20:15:08.864Z,98038.25
2022-12-28T20:17:35.617Z,98045.94
2022-12-28T20:20:02.196Z,98040.38
2022-12-28T20:22:28.761Z,98040.97
2022-12-28T20:24:55.268Z,98036.19
2022-12-28T20:27:23.451Z,98041.66
2022-12-28T20:29:49.994Z,98033.16
2022-12-28T20:32:16.564Z,98035.72
2022-12-28T20:34:43.313Z,98036.44
2022-12-28T20:37:09.873Z,98030.16
2022-12-28T20:39:36.553Z,98033.16
2022-12-28T20:42:21.527Z,98026.94
2022-12-28T20:44:48.076Z,98028.56
2022-12-28T20:47:14.746Z,98019.41
2022-12-28T20:49:41.300Z,98011.44
2022-12-28T20:52:07.836Z,98024.59
2022-12-28T20:54:34.402Z,98019.50
2022-12-28T20:57:01.143Z,98022.41
2022-12-28T20:59:27.795Z,98013.69
2022-12-28T21:01:54.548Z,98016.47
2022-12-28T21:04:22.269Z,98016.81
2022-12-28T21:06:48.809Z,98003.53
2022-12-28T21:09:15.361Z,97997.44
2022-12-28T21:11:41.914Z,97996.59
2022-12-28T21:14:08.459Z,97997.94
2022-12-28T21:16:35.191Z,97996.28
2022-12-28T21:19:01.713Z,97993.84
2022-12-28T21:21:28.226Z,97995.75
2022-12-28T21:23:54.801Z,97981.41
2022-12-28T21:26:21.901Z,97985.09
2022-12-28T21:28:48.644Z,97978.41
2022-12-28T21:31:15.343Z,97973.09
2022-12-28T21:33:42.033Z,97965.34
2022-12-28T21:36:15.686Z,97967.25
2022-12-28T21:38:42.839Z,97965.81
2022-12-28T21:41:10.459Z,97962.19
2022-12-28T21:43:36.970Z,97958.06
2022-12-28T21:46:04.800Z,97956.81
2022-12-28T21:48:32.434Z,97954.25
2022-12-28T21:51:35.397Z,97946.78
2022-12-28T21:54:02.024Z,97952.75
2022-12-28T21:56:29.136Z,97954.91
2022-12-28T21:58:56.018Z,97950.69
2022-12-28T22:01:41.375Z,97952.88
2022-12-28T22:04:28.007Z,97945.03
2022-12-28T22:06:54.521Z,97947.78
2022-12-28T22:09:39.603Z,97948.97
2022-12-28T22:12:25.084Z,97944.66
2022-12-28T22:15:11.571Z,97947.47
2022-12-28T22:17:38.133Z,97947.41
2022-12-28T22:20:04.829Z,97938.72
2022-12-28T22:22:31.435Z,97937.13
2022-12-28T22:24:57.954Z,97943.41
2022-12-28T22:27:24.499Z,97938.69
2022-12-28T22:29:51.050Z,97943.00
2022-12-28T22:32:17.636Z,97937.88
2022-12-28T22:34:44.187Z,97938.69
2022-12-28T22:37:12.990Z,97927.38
2022-12-28T22:39:39.515Z,97923.25
2022-12-28T22:42:08.435Z,97927.19
2022-12-28T22:44:35.297Z,97923.13
2022-12-28T22:47:01.876Z,97920.41
2022-12-28T22:49:28.392Z,97913.56
2022-12-28T22:51:54.946Z,97919.13
2022-12-28T22:54:21.436Z,97912.34
2022-12-28T22:56:47.935Z,97907.41
2022-12-28T22:59:15.811Z,97907.38
2022-12-28T23:01:43.655Z,97910.81
2022-12-28T23:04:10.348Z,97910.50
2022-12-28T23:06:36.830Z,97910.38
2022-12-28T23:09:03.364Z,97903.09
2022-12-28T23:11:39.687Z,97913.56
2022-12-28T23:14:26.415Z,97909.78
2022-12-28T23:16:53.454Z,97917.56
2022-12-28T23:19:38.554Z,97910.31
2022-12-28T23:22:24.153Z,97919.00
2022-12-28T23:25:09.661Z,97917.56
2022-12-28T23:27:37.341Z,97920.25
2022-12-28T23:30:05.462Z,97901.78
2022-12-28T23:32:32.013Z,97920.47
2022-12-28T23:34:58.595Z,97915.00
2022-12-28T23:37:25.151Z,97906.78
2022-12-28T23:39:51.692Z,97900.00
2022-12-28T23:42:18.275Z,97893.09
2022-12-28T23:44:49.161Z,97891.50
2022-12-28T23:47:16.346Z,97886.94
2022-12-28T23:49:42.865Z,97881.44
2022-12-28T23:52:09.531Z,97876.19
2022-12-28T23:54:36.018Z,97879.38
2022-12-28T23:57:02.587Z,97881.38
2022-12-28T23:59:29.120Z,97876.78
